sensor_id;sensor_type;location;lat;lon;timestamp;P1;durP1;ratioP1;P2;durP2;ratioP2
53867;SDS011;41577;47.470;19.080;2023-04-15T00:00:06;17.40;;;15.15;;
53867;SDS011;41577;47.470;19.080;2023-04-15T00:00:25;12.77;;;11.43;;
53867;SDS011;41577;47.470;19.080;2023-04-15T00:00:37;12.15;;;10.88;;
53867;SDS011;41577;47.470;19.080;2023-04-15T00:00:49;10.57;;;9.35;;
53867;SDS011;41577;47.470;19.080;2023-04-15T00:01:02;8.95;;;7.50;;
53867;SDS011;41577;47.470;19.080;2023-04-15T00:01:14;7.38;;;6.38;;
53867;SDS011;41577;47.470;19.080;2023-04-15T00:01:26;7.80;;;6.57;;
53867;SDS011;41577;47.470;19.080;2023-04-15T00:01:39;8.32;;;7.28;;
53867;SDS011;41577;47.470;19.080;2023-04-15T00:01:50;9.02;;;7.38;;
53867;SDS011;41577;47.470;19.080;2023-04-15T00:02:12;8.50;;;6.55;;
53867;SDS011;41577;47.470;19.080;2023-04-15T00:02:25;7.38;;;5.20;;
53867;SDS011;41577;47.470;19.080;2023-04-15T00:02:38;7.25;;;5.22;;
53867;SDS011;41577;47.470;19.080;2023-04-15T00:02:50;8.40;;;5.22;;
53867;SDS011;41577;47.470;19.080;2023-04-15T00:03:02;7.72;;;5.15;;
53867;SDS011;41577;47.470;19.080;2023-04-15T00:03:15;5.90;;;4.82;;
53867;SDS011;41577;47.470;19.080;2023-04-15T00:03:27;6.20;;;4.70;;
53867;SDS011;41577;47.470;19.080;2023-04-15T00:03:40;5.60;;;4.50;;
53867;SDS011;41577;47.470;19.080;2023-04-15T00:03:53;5.57;;;4.60;;
53867;SDS011;41577;47.470;19.080;2023-04-15T00:04:06;5.10;;;4.60;;
53867;SDS011;41577;47.470;19.080;2023-04-15T00:04:18;6.93;;;5.05;;
53867;SDS011;41577;47.470;19.080;2023-04-15T00:04:31;6.82;;;5.07;;
53867;SDS011;41577;47.470;19.080;2023-04-15T00:04:44;5.28;;;4.78;;
53867;SDS011;41577;47.470;19.080;2023-04-15T00:04:56;5.88;;;4.90;;
53867;SDS011;41577;47.470;19.080;2023-04-15T00:05:09;6.80;;;5.10;;
53867;SDS011;41577;47.470;19.080;2023-04-15T00:05:21;7.97;;;4.93;;
53867;SDS011;41577;47.470;19.080;2023-04-15T00:05:33;6.72;;;4.80;;
53867;SDS011;41577;47.470;19.080;2023-04-15T00:05:45;5.18;;;4.68;;
53867;SDS011;41577;47.470;19.080;2023-04-15T00:05:57;5.25;;;4.75;;
53867;SDS011;41577;47.470;19.080;2023-04-15T00:06:09;5.13;;;4.63;;
53867;SDS011;41577;47.470;19.080;2023-04-15T00:06:21;8.27;;;4.60;;
53867;SDS011;41577;47.470;19.080;2023-04-15T00:06:33;9.07;;;4.70;;
53867;SDS011;41577;47.470;19.080;2023-04-15T00:06:50;5.75;;;4.85;;
53867;SDS011;41577;47.470;19.080;2023-04-15T00:07:02;5.50;;;4.88;;
53867;SDS011;41577;47.470;19.080;2023-04-15T00:07:14;5.55;;;4.82;;
53867;SDS011;41577;47.470;19.080;2023-04-15T00:07:26;5.82;;;5.03;;
53867;SDS011;41577;47.470;19.080;2023-04-15T00:07:39;6.15;;;4.68;;
53867;SDS011;41577;47.470;19.080;2023-04-15T00:07:51;5.35;;;4.35;;
53867;SDS011;41577;47.470;19.080;2023-04-15T00:08:04;5.00;;;4.45;;
53867;SDS011;41577;47.470;19.080;2023-04-15T00:08:16;4.93;;;4.47;;
53867;SDS011;41577;47.470;19.080;2023-04-15T00:08:28;7.20;;;4.90;;
53867;SDS011;41577;47.470;19.080;2023-04-15T00:08:41;7.47;;;5.07;;
53867;SDS011;41577;47.470;19.080;2023-04-15T00:08:53;5.53;;;4.90;;
53867;SDS011;41577;47.470;19.080;2023-04-15T00:09:06;6.43;;;4.90;;
53867;SDS011;41577;47.470;19.080;2023-04-15T00:09:18;5.95;;;4.70;;
53867;SDS011;41577;47.470;19.080;2023-04-15T00:09:32;7.53;;;4.65;;
53867;SDS011;41577;47.470;19.080;2023-04-15T00:09:43;8.85;;;4.82;;
53867;SDS011;41577;47.470;19.080;2023-04-15T00:09:55;8.48;;;4.78;;
53867;SDS011;41577;47.470;19.080;2023-04-15T00:10:08;6.43;;;4.50;;
53867;SDS011;41577;47.470;19.080;2023-04-15T00:10:20;5.20;;;4.70;;
53867;SDS011;41577;47.470;19.080;2023-04-15T00:10:32;5.68;;;5.07;;
53867;SDS011;41577;47.470;19.080;2023-04-15T00:10:44;7.97;;;5.25;;
53867;SDS011;41577;47.470;19.080;2023-04-15T00:10:56;8.05;;;5.07;;
53867;SDS011;41577;47.470;19.080;2023-04-15T00:11:09;7.70;;;4.80;;
53867;SDS011;41577;47.470;19.080;2023-04-15T00:11:21;5.30;;;4.57;;
53867;SDS011;41577;47.470;19.080;2023-04-15T00:11:33;5.03;;;4.53;;
53867;SDS011;41577;47.470;19.080;2023-04-15T00:11:45;5.75;;;4.60;;
53867;SDS011;41577;47.470;19.080;2023-04-15T00:11:57;5.75;;;4.80;;
53867;SDS011;41577;47.470;19.080;2023-04-15T00:12:09;6.18;;;4.93;;
53867;SDS011;41577;47.470;19.080;2023-04-15T00:12:22;5.95;;;4.82;;
53867;SDS011;41577;47.470;19.080;2023-04-15T00:12:34;6.57;;;4.82;;
53867;SDS011;41577;47.470;19.080;2023-04-15T00:12:47;6.90;;;4.63;;
53867;SDS011;41577;47.470;19.080;2023-04-15T00:12:59;7.60;;;4.63;;
53867;SDS011;41577;47.470;19.080;2023-04-15T00:13:11;7.30;;;4.68;;
53867;SDS011;41577;47.470;19.080;2023-04-15T00:13:24;6.38;;;4.80;;
53867;SDS011;41577;47.470;19.080;2023-04-15T00:13:36;6.07;;;4.70;;
53867;SDS011;41577;47.470;19.080;2023-04-15T00:13:48;6.85;;;4.78;;
53867;SDS011;41577;47.470;19.080;2023-04-15T00:14:00;5.57;;;4.65;;
53867;SDS011;41577;47.470;19.080;2023-04-15T00:14:13;5.03;;;4.45;;
53867;SDS011;41577;47.470;19.080;2023-04-15T00:14:25;5.53;;;4.50;;
53867;SDS011;41577;47.470;19.080;2023-04-15T00:14:37;6.18;;;4.80;;
53867;SDS011;41577;47.470;19.080;2023-04-15T00:14:49;5.43;;;4.60;;
53867;SDS011;41577;47.470;19.080;2023-04-15T00:15:02;6.43;;;4.57;;
53867;SDS011;41577;47.470;19.080;2023-04-15T00:15:14;8.52;;;4.68;;
53867;SDS011;41577;47.470;19.080;2023-04-15T00:15:27;8.52;;;4.63;;
53867;SDS011;41577;47.470;19.080;2023-04-15T00:15:39;10.10;;;4.68;;
53867;SDS011;41577;47.470;19.080;2023-04-15T00:15:51;7.20;;;4.55;;
53867;SDS011;41577;47.470;19.080;2023-04-15T00:16:03;5.93;;;4.20;;
53867;SDS011;41577;47.470;19.080;2023-04-15T00:16:16;5.30;;;4.45;;
53867;SDS011;41577;47.470;19.080;2023-04-15T00:16:28;6.15;;;4.57;;
53867;SDS011;41577;47.470;19.080;2023-04-15T00:16:40;5.50;;;4.47;;
53867;SDS011;41577;47.470;19.080;2023-04-15T00:16:52;5.20;;;4.24;;
53867;SDS011;41577;47.470;19.080;2023-04-15T00:17:04;5.18;;;4.50;;
53867;SDS011;41577;47.470;19.080;2023-04-15T00:17:17;5.03;;;4.50;;
53867;SDS011;41577;47.470;19.080;2023-04-15T00:17:29;4.90;;;4.40;;
53867;SDS011;41577;47.470;19.080;2023-04-15T00:17:41;4.97;;;4.47;;
53867;SDS011;41577;47.470;19.080;2023-04-15T00:17:53;8.30;;;4.65;;
53867;SDS011;41577;47.470;19.080;2023-04-15T00:18:05;8.00;;;4.28;;
53867;SDS011;41577;47.470;19.080;2023-04-15T00:18:18;4.57;;;4.15;;
53867;SDS011;41577;47.470;19.080;2023-04-15T00:18:30;5.53;;;4.30;;
53867;SDS011;41577;47.470;19.080;2023-04-15T00:18:42;6.75;;;4.43;;
53867;SDS011;41577;47.470;19.080;2023-04-15T00:18:54;6.13;;;4.43;;
53867;SDS011;41577;47.470;19.080;2023-04-15T00:19:07;6.78;;;4.90;;
53867;SDS011;41577;47.470;19.080;2023-04-15T00:19:20;9.77;;;4.60;;
53867;SDS011;41577;47.470;19.080;2023-04-15T00:19:32;8.68;;;4.30;;
53867;SDS011;41577;47.470;19.080;2023-04-15T00:19:44;7.85;;;4.40;;
53867;SDS011;41577;47.470;19.080;2023-04-15T00:19:56;6.05;;;4.40;;
53867;SDS011;41577;47.470;19.080;2023-04-15T00:20:09;6.03;;;4.60;;
53867;SDS011;41577;47.470;19.080;2023-04-15T00:20:22;5.10;;;4.60;;
53867;SDS011;41577;47.470;19.080;2023-04-15T00:20:34;5.05;;;4.60;;
53867;SDS011;41577;47.470;19.080;2023-04-15T00:20:46;5.22;;;4.72;;
53867;SDS011;41577;47.470;19.080;2023-04-15T00:20:59;6.03;;;4.72;;
53867;SDS011;41577;47.470;19.080;2023-04-15T00:21:11;6.22;;;4.47;;
53867;SDS011;41577;47.470;19.080;2023-04-15T00:21:23;6.15;;;4.45;;
53867;SDS011;41577;47.470;19.080;2023-04-15T00:21:36;6.18;;;4.68;;
53867;SDS011;41577;47.470;19.080;2023-04-15T00:21:48;6.85;;;4.72;;
53867;SDS011;41577;47.470;19.080;2023-04-15T00:22:01;6.43;;;4.28;;
53867;SDS011;41577;47.470;19.080;2023-04-15T00:22:13;5.45;;;4.18;;
53867;SDS011;41577;47.470;19.080;2023-04-15T00:22:26;6.47;;;4.15;;
53867;SDS011;41577;47.470;19.080;2023-04-15T00:22:38;8.55;;;4.40;;
53867;SDS011;41577;47.470;19.080;2023-04-15T00:22:50;7.25;;;4.43;;
53867;SDS011;41577;47.470;19.080;2023-04-15T00:23:02;6.05;;;4.45;;
53867;SDS011;41577;47.470;19.080;2023-04-15T00:23:15;5.07;;;4.28;;
53867;SDS011;41577;47.470;19.080;2023-04-15T00:23:27;5.15;;;4.40;;
53867;SDS011;41577;47.470;19.080;2023-04-15T00:23:40;5.10;;;4.60;;
53867;SDS011;41577;47.470;19.080;2023-04-15T00:23:52;5.40;;;4.90;;
53867;SDS011;41577;47.470;19.080;2023-04-15T00:24:05;5.47;;;4.97;;
53867;SDS011;41577;47.470;19.080;2023-04-15T00:24:18;5.32;;;4.88;;
53867;SDS011;41577;47.470;19.080;2023-04-15T00:24:31;5.57;;;5.07;;
53867;SDS011;41577;47.470;19.080;2023-04-15T00:24:43;5.72;;;5.22;;
53867;SDS011;41577;47.470;19.080;2023-04-15T00:24:56;5.60;;;5.10;;
53867;SDS011;41577;47.470;19.080;2023-04-15T00:25:08;5.43;;;4.93;;
53867;SDS011;41577;47.470;19.080;2023-04-15T00:25:20;9.93;;;4.85;;
53867;SDS011;41577;47.470;19.080;2023-04-15T00:25:32;11.25;;;5.13;;
53867;SDS011;41577;47.470;19.080;2023-04-15T00:25:45;10.63;;;5.68;;
53867;SDS011;41577;47.470;19.080;2023-04-15T00:25:57;8.13;;;5.78;;
53867;SDS011;41577;47.470;19.080;2023-04-15T00:26:09;7.35;;;5.53;;
53867;SDS011;41577;47.470;19.080;2023-04-15T00:26:22;5.85;;;5.30;;
53867;SDS011;41577;47.470;19.080;2023-04-15T00:26:35;16.52;;;5.80;;
53867;SDS011;41577;47.470;19.080;2023-04-15T00:26:47;17.33;;;5.65;;
53867;SDS011;41577;47.470;19.080;2023-04-15T00:27:00;17.80;;;5.78;;
53867;SDS011;41577;47.470;19.080;2023-04-15T00:27:12;8.63;;;5.90;;
53867;SDS011;41577;47.470;19.080;2023-04-15T00:27:24;8.48;;;5.53;;
53867;SDS011;41577;47.470;19.080;2023-04-15T00:27:36;9.30;;;5.45;;
53867;SDS011;41577;47.470;19.080;2023-04-15T00:27:48;9.23;;;5.50;;
53867;SDS011;41577;47.470;19.080;2023-04-15T00:28:00;6.43;;;5.32;;
53867;SDS011;41577;47.470;19.080;2023-04-15T00:28:13;5.90;;;5.40;;
53867;SDS011;41577;47.470;19.080;2023-04-15T00:28:26;6.25;;;5.43;;
53867;SDS011;41577;47.470;19.080;2023-04-15T00:28:38;6.85;;;5.57;;
53867;SDS011;41577;47.470;19.080;2023-04-15T00:28:51;7.38;;;6.13;;
53867;SDS011;41577;47.470;19.080;2023-04-15T00:29:04;7.35;;;6.38;;
53867;SDS011;41577;47.470;19.080;2023-04-15T00:29:17;7.20;;;6.07;;
53867;SDS011;41577;47.470;19.080;2023-04-15T00:29:29;6.47;;;5.47;;
53867;SDS011;41577;47.470;19.080;2023-04-15T00:29:42;6.07;;;5.30;;
53867;SDS011;41577;47.470;19.080;2023-04-15T00:29:54;6.12;;;5.52;;
53867;SDS011;41577;47.470;19.080;2023-04-15T00:30:07;6.15;;;5.45;;
53867;SDS011;41577;47.470;19.080;2023-04-15T00:30:19;6.60;;;5.30;;
53867;SDS011;41577;47.470;19.080;2023-04-15T00:30:31;5.63;;;5.00;;
53867;SDS011;41577;47.470;19.080;2023-04-15T00:30:43;5.75;;;5.13;;
53867;SDS011;41577;47.470;19.080;2023-04-15T00:30:56;5.70;;;5.15;;
53867;SDS011;41577;47.470;19.080;2023-04-15T00:31:09;6.68;;;5.68;;
53867;SDS011;41577;47.470;19.080;2023-04-15T00:31:21;7.13;;;6.00;;
53867;SDS011;41577;47.470;19.080;2023-04-15T00:31:35;7.28;;;6.15;;
53867;SDS011;41577;47.470;19.080;2023-04-15T00:31:47;8.50;;;6.22;;
53867;SDS011;41577;47.470;19.080;2023-04-15T00:32:00;7.80;;;6.60;;
53867;SDS011;41577;47.470;19.080;2023-04-15T00:32:12;7.63;;;6.72;;
53867;SDS011;41577;47.470;19.080;2023-04-15T00:32:24;7.90;;;6.47;;
53867;SDS011;41577;47.470;19.080;2023-04-15T00:32:37;7.35;;;5.57;;
53867;SDS011;41577;47.470;19.080;2023-04-15T00:32:50;5.93;;;4.85;;
53867;SDS011;41577;47.470;19.080;2023-04-15T00:33:05;5.97;;;4.30;;
53867;SDS011;41577;47.470;19.080;2023-04-15T00:33:18;6.50;;;4.25;;
53867;SDS011;41577;47.470;19.080;2023-04-15T00:33:30;6.70;;;4.30;;
53867;SDS011;41577;47.470;19.080;2023-04-15T00:33:42;5.07;;;4.10;;
53867;SDS011;41577;47.470;19.080;2023-04-15T00:33:55;5.05;;;4.18;;
53867;SDS011;41577;47.470;19.080;2023-04-15T00:34:07;4.85;;;4.45;;
53867;SDS011;41577;47.470;19.080;2023-04-15T00:34:19;5.07;;;4.50;;
53867;SDS011;41577;47.470;19.080;2023-04-15T00:34:31;5.75;;;4.65;;
53867;SDS011;41577;47.470;19.080;2023-04-15T00:34:44;5.25;;;4.60;;
53867;SDS011;41577;47.470;19.080;2023-04-15T00:34:57;5.03;;;4.50;;
53867;SDS011;41577;47.470;19.080;2023-04-15T00:35:09;5.10;;;4.55;;
53867;SDS011;41577;47.470;19.080;2023-04-15T00:35:21;6.20;;;5.38;;
53867;SDS011;41577;47.470;19.080;2023-04-15T00:35:34;6.80;;;5.80;;
53867;SDS011;41577;47.470;19.080;2023-04-15T00:35:47;6.53;;;5.75;;
53867;SDS011;41577;47.470;19.080;2023-04-15T00:35:59;6.25;;;4.88;;
53867;SDS011;41577;47.470;19.080;2023-04-15T00:36:12;6.00;;;4.70;;
53867;SDS011;41577;47.470;19.080;2023-04-15T00:36:24;5.15;;;4.65;;
53867;SDS011;41577;47.470;19.080;2023-04-15T00:36:37;5.90;;;5.13;;
53867;SDS011;41577;47.470;19.080;2023-04-15T00:36:49;7.75;;;6.05;;
53867;SDS011;41577;47.470;19.080;2023-04-15T00:37:02;10.15;;;6.63;;
53867;SDS011;41577;47.470;19.080;2023-04-15T00:37:13;9.88;;;6.40;;
53867;SDS011;41577;47.470;19.080;2023-04-15T00:37:25;8.70;;;5.82;;
53867;SDS011;41577;47.470;19.080;2023-04-15T00:37:38;8.25;;;5.38;;
53867;SDS011;41577;47.470;19.080;2023-04-15T00:37:52;6.60;;;5.20;;
53867;SDS011;41577;47.470;19.080;2023-04-15T00:38:05;5.28;;;4.78;;
53867;SDS011;41577;47.470;19.080;2023-04-15T00:38:17;5.30;;;4.80;;
53867;SDS011;41577;47.470;19.080;2023-04-15T00:38:30;5.15;;;4.72;;
53867;SDS011;41577;47.470;19.080;2023-04-15T00:38:42;5.25;;;4.72;;
53867;SDS011;41577;47.470;19.080;2023-04-15T00:38:55;8.52;;;4.93;;
53867;SDS011;41577;47.470;19.080;2023-04-15T00:39:08;7.80;;;4.66;;
53867;SDS011;41577;47.470;19.080;2023-04-15T00:39:21;9.40;;;4.75;;
53867;SDS011;41577;47.470;19.080;2023-04-15T00:39:35;8.48;;;4.93;;
53867;SDS011;41577;47.470;19.080;2023-04-15T00:39:47;7.55;;;4.93;;
53867;SDS011;41577;47.470;19.080;2023-04-15T00:39:59;5.13;;;4.63;;
53867;SDS011;41577;47.470;19.080;2023-04-15T00:40:11;5.22;;;4.53;;
53867;SDS011;41577;47.470;19.080;2023-04-15T00:40:24;5.22;;;4.60;;
53867;SDS011;41577;47.470;19.080;2023-04-15T00:40:37;5.18;;;4.60;;
53867;SDS011;41577;47.470;19.080;2023-04-15T00:40:49;5.43;;;4.90;;
53867;SDS011;41577;47.470;19.080;2023-04-15T00:41:01;5.30;;;4.80;;
53867;SDS011;41577;47.470;19.080;2023-04-15T00:41:15;5.78;;;4.68;;
53867;SDS011;41577;47.470;19.080;2023-04-15T00:41:28;6.97;;;4.85;;
53867;SDS011;41577;47.470;19.080;2023-04-15T00:41:40;6.22;;;4.72;;
53867;SDS011;41577;47.470;19.080;2023-04-15T00:41:52;6.65;;;4.85;;
53867;SDS011;41577;47.470;19.080;2023-04-15T00:42:05;6.90;;;4.68;;
53867;SDS011;41577;47.470;19.080;2023-04-15T00:42:17;7.25;;;4.60;;
53867;SDS011;41577;47.470;19.080;2023-04-15T00:42:31;6.40;;;4.50;;
53867;SDS011;41577;47.470;19.080;2023-04-15T00:42:44;5.93;;;4.55;;
53867;SDS011;41577;47.470;19.080;2023-04-15T00:42:57;5.18;;;4.53;;
53867;SDS011;41577;47.470;19.080;2023-04-15T00:43:09;5.10;;;4.63;;
53867;SDS011;41577;47.470;19.080;2023-04-15T00:43:22;5.13;;;4.63;;
53867;SDS011;41577;47.470;19.080;2023-04-15T00:43:34;5.60;;;4.65;;
53867;SDS011;41577;47.470;19.080;2023-04-15T00:43:46;5.60;;;4.80;;
53867;SDS011;41577;47.470;19.080;2023-04-15T00:43:59;7.18;;;4.65;;
53867;SDS011;41577;47.470;19.080;2023-04-15T00:44:12;7.32;;;4.70;;
53867;SDS011;41577;47.470;19.080;2023-04-15T00:44:24;5.28;;;4.60;;
53867;SDS011;41577;47.470;19.080;2023-04-15T00:44:37;5.28;;;4.80;;
53867;SDS011;41577;47.470;19.080;2023-04-15T00:44:50;5.15;;;4.72;;
53867;SDS011;41577;47.470;19.080;2023-04-15T00:45:02;5.90;;;4.90;;
53867;SDS011;41577;47.470;19.080;2023-04-15T00:45:15;5.88;;;4.70;;
53867;SDS011;41577;47.470;19.080;2023-04-15T00:45:27;5.07;;;4.53;;
53867;SDS011;41577;47.470;19.080;2023-04-15T00:45:40;5.80;;;4.65;;
53867;SDS011;41577;47.470;19.080;2023-04-15T00:45:53;6.07;;;4.78;;
53867;SDS011;41577;47.470;19.080;2023-04-15T00:46:09;5.22;;;4.70;;
53867;SDS011;41577;47.470;19.080;2023-04-15T00:46:26;5.15;;;4.70;;
53867;SDS011;41577;47.470;19.080;2023-04-15T00:46:41;5.18;;;4.70;;
53867;SDS011;41577;47.470;19.080;2023-04-15T00:46:55;4.97;;;4.57;;
53867;SDS011;41577;47.470;19.080;2023-04-15T00:47:08;5.28;;;4.80;;
53867;SDS011;41577;47.470;19.080;2023-04-15T00:47:21;5.35;;;4.85;;
53867;SDS011;41577;47.470;19.080;2023-04-15T00:47:34;10.07;;;4.88;;
53867;SDS011;41577;47.470;19.080;2023-04-15T00:47:46;10.07;;;4.97;;
53867;SDS011;41577;47.470;19.080;2023-04-15T00:47:59;5.22;;;4.70;;
53867;SDS011;41577;47.470;19.080;2023-04-15T00:48:11;6.45;;;4.72;;
53867;SDS011;41577;47.470;19.080;2023-04-15T00:48:24;5.80;;;4.65;;
53867;SDS011;41577;47.470;19.080;2023-04-15T00:48:37;6.20;;;4.97;;
53867;SDS011;41577;47.470;19.080;2023-04-15T00:48:49;5.82;;;5.22;;
53867;SDS011;41577;47.470;19.080;2023-04-15T00:49:03;5.82;;;5.28;;
53867;SDS011;41577;47.470;19.080;2023-04-15T00:49:17;5.85;;;5.22;;
53867;SDS011;41577;47.470;19.080;2023-04-15T00:49:29;5.88;;;4.82;;
53867;SDS011;41577;47.470;19.080;2023-04-15T00:49:42;6.00;;;5.03;;
53867;SDS011;41577;47.470;19.080;2023-04-15T00:49:54;7.32;;;5.30;;
53867;SDS011;41577;47.470;19.080;2023-04-15T00:50:07;7.22;;;5.55;;
53867;SDS011;41577;47.470;19.080;2023-04-15T00:50:20;7.47;;;5.25;;
53867;SDS011;41577;47.470;19.080;2023-04-15T00:50:33;7.65;;;5.13;;
53867;SDS011;41577;47.470;19.080;2023-04-15T00:50:45;6.55;;;5.18;;
53867;SDS011;41577;47.470;19.080;2023-04-15T00:50:58;5.90;;;5.38;;
53867;SDS011;41577;47.470;19.080;2023-04-15T00:51:10;5.78;;;5.13;;
53867;SDS011;41577;47.470;19.080;2023-04-15T00:51:23;6.10;;;4.95;;
53867;SDS011;41577;47.470;19.080;2023-04-15T00:51:35;5.75;;;5.15;;
53867;SDS011;41577;47.470;19.080;2023-04-15T00:51:48;5.72;;;5.18;;
53867;SDS011;41577;47.470;19.080;2023-04-15T00:52:00;5.63;;;5.10;;
53867;SDS011;41577;47.470;19.080;2023-04-15T00:52:13;5.68;;;5.10;;
53867;SDS011;41577;47.470;19.080;2023-04-15T00:52:25;5.82;;;5.20;;
53867;SDS011;41577;47.470;19.080;2023-04-15T00:52:37;5.78;;;5.20;;
53867;SDS011;41577;47.470;19.080;2023-04-15T00:52:50;5.95;;;5.30;;
53867;SDS011;41577;47.470;19.080;2023-04-15T00:53:03;7.22;;;5.43;;
53867;SDS011;41577;47.470;19.080;2023-04-15T00:53:15;7.53;;;5.55;;
53867;SDS011;41577;47.470;19.080;2023-04-15T00:53:27;8.63;;;5.78;;
53867;SDS011;41577;47.470;19.080;2023-04-15T00:53:41;8.35;;;5.80;;
53867;SDS011;41577;47.470;19.080;2023-04-15T00:53:53;7.30;;;5.80;;
53867;SDS011;41577;47.470;19.080;2023-04-15T00:54:05;6.15;;;5.55;;
53867;SDS011;41577;47.470;19.080;2023-04-15T00:54:17;6.50;;;5.90;;
53867;SDS011;41577;47.470;19.080;2023-04-15T00:54:30;6.47;;;5.88;;
53867;SDS011;41577;47.470;19.080;2023-04-15T00:54:44;6.38;;;5.78;;
53867;SDS011;41577;47.470;19.080;2023-04-15T00:54:57;6.40;;;5.80;;
53867;SDS011;41577;47.470;19.080;2023-04-15T00:55:10;6.25;;;5.65;;
53867;SDS011;41577;47.470;19.080;2023-04-15T00:55:22;6.10;;;5.50;;
53867;SDS011;41577;47.470;19.080;2023-04-15T00:55:34;6.22;;;5.63;;
53867;SDS011;41577;47.470;19.080;2023-04-15T00:55:47;6.40;;;5.80;;
53867;SDS011;41577;47.470;19.080;2023-04-15T00:56:00;6.38;;;5.78;;
53867;SDS011;41577;47.470;19.080;2023-04-15T00:56:12;6.22;;;5.63;;
53867;SDS011;41577;47.470;19.080;2023-04-15T00:56:25;6.38;;;5.70;;
53867;SDS011;41577;47.470;19.080;2023-04-15T00:56:39;7.25;;;5.75;;
53867;SDS011;41577;47.470;19.080;2023-04-15T00:56:51;8.43;;;5.80;;
53867;SDS011;41577;47.470;19.080;2023-04-15T00:57:04;9.05;;;5.65;;
53867;SDS011;41577;47.470;19.080;2023-04-15T00:57:16;8.90;;;5.63;;
53867;SDS011;41577;47.470;19.080;2023-04-15T00:57:29;7.05;;;5.43;;
53867;SDS011;41577;47.470;19.080;2023-04-15T00:57:41;6.78;;;5.22;;
53867;SDS011;41577;47.470;19.080;2023-04-15T00:57:55;6.50;;;5.07;;
53867;SDS011;41577;47.470;19.080;2023-04-15T00:58:07;6.22;;;5.25;;
53867;SDS011;41577;47.470;19.080;2023-04-15T00:58:20;6.80;;;5.43;;
53867;SDS011;41577;47.470;19.080;2023-04-15T00:58:32;6.32;;;5.70;;
53867;SDS011;41577;47.470;19.080;2023-04-15T00:58:44;6.68;;;5.97;;
53867;SDS011;41577;47.470;19.080;2023-04-15T00:58:57;6.40;;;5.80;;
53867;SDS011;41577;47.470;19.080;2023-04-15T00:59:10;6.43;;;5.78;;
53867;SDS011;41577;47.470;19.080;2023-04-15T00:59:23;5.85;;;5.18;;
53867;SDS011;41577;47.470;19.080;2023-04-15T00:59:37;5.88;;;5.20;;
53867;SDS011;41577;47.470;19.080;2023-04-15T00:59:50;7.25;;;5.63;;
53867;SDS011;41577;47.470;19.080;2023-04-15T01:00:05;6.90;;;5.50;;
53867;SDS011;41577;47.470;19.080;2023-04-15T01:00:17;6.28;;;5.40;;
53867;SDS011;41577;47.470;19.080;2023-04-15T01:00:30;6.15;;;5.55;;
53867;SDS011;41577;47.470;19.080;2023-04-15T01:00:43;6.10;;;5.57;;
53867;SDS011;41577;47.470;19.080;2023-04-15T01:00:56;5.95;;;5.35;;
53867;SDS011;41577;47.470;19.080;2023-04-15T01:01:08;6.38;;;5.40;;
53867;SDS011;41577;47.470;19.080;2023-04-15T01:01:21;6.20;;;5.35;;
53867;SDS011;41577;47.470;19.080;2023-04-15T01:01:36;6.25;;;5.10;;
53867;SDS011;41577;47.470;19.080;2023-04-15T01:01:48;5.85;;;5.18;;
53867;SDS011;41577;47.470;19.080;2023-04-15T01:02:01;5.80;;;5.30;;
53867;SDS011;41577;47.470;19.080;2023-04-15T01:02:14;6.07;;;5.22;;
53867;SDS011;41577;47.470;19.080;2023-04-15T01:02:27;6.47;;;5.18;;
53867;SDS011;41577;47.470;19.080;2023-04-15T01:02:39;6.10;;;5.32;;
53867;SDS011;41577;47.470;19.080;2023-04-15T01:02:52;6.15;;;5.55;;
53867;SDS011;41577;47.470;19.080;2023-04-15T01:03:05;6.45;;;5.85;;
53867;SDS011;41577;47.470;19.080;2023-04-15T01:03:19;6.10;;;5.50;;
53867;SDS011;41577;47.470;19.080;2023-04-15T01:03:31;5.75;;;5.22;;
53867;SDS011;41577;47.470;19.080;2023-04-15T01:03:43;6.20;;;5.60;;
53867;SDS011;41577;47.470;19.080;2023-04-15T01:03:56;6.13;;;5.53;;
53867;SDS011;41577;47.470;19.080;2023-04-15T01:04:09;6.10;;;5.50;;
53867;SDS011;41577;47.470;19.080;2023-04-15T01:04:21;6.43;;;5.55;;
53867;SDS011;41577;47.470;19.080;2023-04-15T01:04:34;6.47;;;5.60;;
53867;SDS011;41577;47.470;19.080;2023-04-15T01:04:47;6.00;;;5.32;;
53867;SDS011;41577;47.470;19.080;2023-04-15T01:04:59;5.72;;;5.18;;
53867;SDS011;41577;47.470;19.080;2023-04-15T01:05:11;5.53;;;5.03;;
53867;SDS011;41577;47.470;19.080;2023-04-15T01:05:24;5.50;;;5.10;;
53867;SDS011;41577;47.470;19.080;2023-04-15T01:05:36;6.70;;;5.13;;
53867;SDS011;41577;47.470;19.080;2023-04-15T01:05:50;7.18;;;4.97;;
53867;SDS011;41577;47.470;19.080;2023-04-15T01:06:03;6.57;;;5.00;;
53867;SDS011;41577;47.470;19.080;2023-04-15T01:06:15;5.75;;;5.15;;
53867;SDS011;41577;47.470;19.080;2023-04-15T01:06:28;6.07;;;5.45;;
53867;SDS011;41577;47.470;19.080;2023-04-15T01:06:41;5.65;;;5.05;;
53867;SDS011;41577;47.470;19.080;2023-04-15T01:06:54;4.93;;;4.43;;
53867;SDS011;41577;47.470;19.080;2023-04-15T01:07:06;4.95;;;4.50;;
53867;SDS011;41577;47.470;19.080;2023-04-15T01:07:19;5.32;;;4.82;;
53867;SDS011;41577;47.470;19.080;2023-04-15T01:07:31;5.55;;;5.05;;
53867;SDS011;41577;47.470;19.080;2023-04-15T01:07:43;5.72;;;5.13;;
53867;SDS011;41577;47.470;19.080;2023-04-15T01:07:55;5.47;;;4.95;;
53867;SDS011;41577;47.470;19.080;2023-04-15T01:08:07;5.65;;;5.15;;
53867;SDS011;41577;47.470;19.080;2023-04-15T01:08:20;6.43;;;5.18;;
53867;SDS011;41577;47.470;19.080;2023-04-15T01:08:32;9.65;;;5.35;;
53867;SDS011;41577;47.470;19.080;2023-04-15T01:08:44;7.43;;;5.40;;
53867;SDS011;41577;47.470;19.080;2023-04-15T01:08:57;6.30;;;5.28;;
53867;SDS011;41577;47.470;19.080;2023-04-15T01:09:10;5.50;;;5.00;;
53867;SDS011;41577;47.470;19.080;2023-04-15T01:09:23;5.32;;;4.82;;
53867;SDS011;41577;47.470;19.080;2023-04-15T01:09:35;6.20;;;4.85;;
53867;SDS011;41577;47.470;19.080;2023-04-15T01:09:49;5.72;;;4.85;;
53867;SDS011;41577;47.470;19.080;2023-04-15T01:10:01;8.73;;;5.38;;
53867;SDS011;41577;47.470;19.080;2023-04-15T01:10:14;10.02;;;5.85;;
53867;SDS011;41577;47.470;19.080;2023-04-15T01:10:28;6.72;;;5.70;;
53867;SDS011;41577;47.470;19.080;2023-04-15T01:10:41;5.90;;;5.38;;
53867;SDS011;41577;47.470;19.080;2023-04-15T01:10:54;5.78;;;5.28;;
53867;SDS011;41577;47.470;19.080;2023-04-15T01:11:07;5.60;;;5.15;;
53867;SDS011;41577;47.470;19.080;2023-04-15T01:11:21;5.75;;;5.25;;
53867;SDS011;41577;47.470;19.080;2023-04-15T01:11:34;5.70;;;5.20;;
53867;SDS011;41577;47.470;19.080;2023-04-15T01:11:47;5.50;;;5.00;;
53867;SDS011;41577;47.470;19.080;2023-04-15T01:11:59;6.38;;;5.38;;
53867;SDS011;41577;47.470;19.080;2023-04-15T01:12:13;6.50;;;5.68;;
53867;SDS011;41577;47.470;19.080;2023-04-15T01:12:27;7.68;;;5.70;;
53867;SDS011;41577;47.470;19.080;2023-04-15T01:12:40;7.65;;;5.65;;
53867;SDS011;41577;47.470;19.080;2023-04-15T01:12:52;9.13;;;5.82;;
53867;SDS011;41577;47.470;19.080;2023-04-15T01:13:04;7.25;;;5.55;;
53867;SDS011;41577;47.470;19.080;2023-04-15T01:13:17;6.43;;;5.43;;
53867;SDS011;41577;47.470;19.080;2023-04-15T01:13:31;6.15;;;5.47;;
53867;SDS011;41577;47.470;19.080;2023-04-15T01:13:44;5.85;;;5.22;;
53867;SDS011;41577;47.470;19.080;2023-04-15T01:13:57;6.45;;;5.28;;
53867;SDS011;41577;47.470;19.080;2023-04-15T01:14:12;8.85;;;5.78;;
53867;SDS011;41577;47.470;19.080;2023-04-15T01:14:24;9.77;;;5.70;;
53867;SDS011;41577;47.470;19.080;2023-04-15T01:14:37;9.07;;;5.38;;
53867;SDS011;41577;47.470;19.080;2023-04-15T01:14:49;7.55;;;5.35;;
53867;SDS011;41577;47.470;19.080;2023-04-15T01:15:02;5.82;;;5.28;;